Ce Niriis — A8GG6 — position and weather

sailwx.info

Track history (hours):
 
Tides and Currents Weather Stations Pressure Air Temp Water Temp Dewpoint Dewpoint Depression Visibility Wind Speed Wind Dir Waves Ship Positions

Ce Niriis

Last reported at 2018-Apr-06 22:16 UTC. Time now 2018-Apr-20 16:19 UTC.
Position N 42°31' E 028°16'.
Warning: this ship's position is 13 days out of date.

Length 243 m; draft 12 m.

Type: Tanker. MMSI: 636012570.

Date/timePositionNaut miles runAvg speedWind from/ knotsBaromVisibWave heightAir tempDewpointWater temp
2018-Apr-06 22:16N 42°31' E 028°16'6 9.6
2018-Apr-06 21:41N 42°33' E 028°23'2 9.5
2018-Apr-06 21:30N 42°33' E 028°25'1212.0
2018-Apr-06 20:33N 42°36' E 028°41'112.7
2018-Apr-06 20:28N 42°37' E 028°42'1612.8
2018-Apr-06 19:14N 42°41' E 029°03'312.6
2018-Apr-06 19:00N 42°41' E 029°06'612.5
2018-Apr-06 18:30N 42°43' E 029°15'612.6
2018-Apr-06 18:00N 42°45' E 029°23'612.6
2018-Apr-06 17:30N 42°46' E 029°31'812.5
2018-Apr-06 16:53N 42°48' E 029°41'512.6
2018-Apr-06 16:30N 42°49' E 029°48'612.5
2018-Apr-06 16:00N 42°51' E 029°56'712.5
2018-Apr-06 15:27N 42°53' E 030°05'16912.4
2018-Apr-06 01:48N 43°36' E 033°50'413.2
2018-Apr-06 01:30N 43°37' E 033°55'713.2
2018-Apr-06 01:00N 43°39' E 034°04'613.1
2018-Apr-06 00:30N 43°41' E 034°13'713.1
2018-Apr-06 00:00N 43°42' E 034°21'713.2
2018-Apr-05 23:30N 43°44' E 034°30'713.2
2018-Apr-05 23:00N 43°45' E 034°39'713.3
2018-Apr-05 22:30N 43°47' E 034°48'713.6
2018-Apr-05 22:00N 43°49' E 034°57'713.7
2018-Apr-05 21:30N 43°51' E 035°06'713.6
2018-Apr-05 21:00N 43°52' E 035°15'713.5
2018-Apr-05 20:30N 43°54' E 035°24'713.8
2018-Apr-05 20:00N 43°56' E 035°33'713.7
2018-Apr-05 19:30N 43°59' E 035°42'713.5
2018-Apr-05 19:00N 44°01' E 035°51'713.3
2018-Apr-05 18:30N 44°01' E 036°01'713.4
2018-Apr-05 18:00N 44°03' E 036°10'713.2
2018-Apr-05 17:30N 44°04' E 036°18'713.1
2018-Apr-05 17:00N 44°05' E 036°28'712.6
2018-Apr-05 16:29N 44°08' E 036°36'713.1
2018-Apr-05 15:57N 44°11' E 036°45'613.0
2018-Apr-05 15:30N 44°14' E 036°52'1013.1
2018-Apr-05 14:44N 44°19' E 037°04'413.2
2018-Apr-05 14:28N 44°20' E 037°09'613.3
2018-Apr-05 13:59N 44°23' E 037°17'1513.3
2018-Apr-05 12:50N 44°30' E 037°35'412.8
2018-Apr-05 12:30N 44°32' E 037°41'611.5
2018-Apr-05 12:00N 44°36' E 037°47'5 9.2
2018-Apr-05 11:30N 44°39' E 037°51'3 5.7
2018-Apr-05 11:00N 44°42' E 037°50'0 0.1
2018-Apr-05 10:29N 44°42' E 037°50'0 0.0
2018-Apr-05 09:59N 44°42' E 037°50'0 0.0
2018-Apr-05 09:29N 44°42' E 037°50'0 0.0
2018-Apr-05 08:59N 44°42' E 037°50'0 0.0
2018-Apr-05 08:29N 44°42' E 037°50'0 0.0
2018-Apr-05 07:59N 44°42' E 037°50'0 0.0
2018-Apr-05 07:29N 44°42' E 037°50'0 0.0
2018-Apr-05 06:59N 44°42' E 037°50'0 0.0
2018-Apr-05 06:29N 44°42' E 037°50'0 0.0
2018-Apr-05 05:59N 44°42' E 037°50'0 0.0
2018-Apr-05 05:29N 44°42' E 037°50'0 0.0
2018-Apr-05 04:59N 44°42' E 037°50'0 0.0
2018-Apr-05 04:29N 44°42' E 037°50'0 0.0
2018-Apr-05 03:59N 44°42' E 037°50'0 0.0
2018-Apr-05 03:23N 44°42' E 037°50'0 0.0
2018-Apr-05 02:59N 44°42' E 037°50'0 0.0
2018-Apr-05 02:29N 44°42' E 037°50'0 0.0
2018-Apr-05 01:59N 44°42' E 037°50'0 0.0
2018-Apr-05 01:29N 44°42' E 037°50'0 0.0
2018-Apr-05 00:59N 44°42' E 037°50'0 0.0
2018-Apr-05 00:29N 44°42' E 037°50'0 0.0
2018-Apr-04 23:59N 44°42' E 037°50'0 0.0
2018-Apr-04 23:29N 44°42' E 037°50'0 0.0
2018-Apr-04 22:59N 44°42' E 037°50'0 0.0
2018-Apr-04 22:29N 44°42' E 037°50'0 0.0
2018-Apr-04 21:58N 44°42' E 037°50'0 0.0
2018-Apr-04 21:28N 44°42' E 037°50'0 0.0
2018-Apr-04 20:58N 44°42' E 037°50'0 0.0
2018-Apr-04 20:28N 44°42' E 037°50'0 0.0
2018-Apr-04 19:58N 44°42' E 037°50'0 0.0
2018-Apr-04 19:28N 44°42' E 037°50'0 0.0
2018-Apr-04 18:58N 44°42' E 037°50'0 0.0
2018-Apr-04 18:28N 44°42' E 037°50'0 0.0
2018-Apr-04 17:58N 44°42' E 037°50'0 0.0
2018-Apr-04 17:28N 44°42' E 037°50'0 0.0
2018-Apr-04 16:58N 44°42' E 037°50'0 0.0
2018-Apr-04 16:28N 44°42' E 037°50'0 0.0
2018-Apr-04 15:58N 44°42' E 037°50'0 0.0
2018-Apr-04 15:28N 44°42' E 037°50'0 0.0
2018-Apr-04 14:58N 44°42' E 037°50'0 0.0
2018-Apr-04 14:28N 44°42' E 037°50'0 0.0
2018-Apr-04 13:58N 44°42' E 037°50'0 0.0
2018-Apr-04 13:28N 44°42' E 037°50'0 0.0
2018-Apr-04 12:58N 44°42' E 037°50'0 0.0
2018-Apr-04 12:28N 44°42' E 037°50'0 0.0
2018-Apr-04 12:00N 44°42' E 037°50'0 0.6
2018-Apr-04 11:30N 44°42' E 037°50'3 5.0
2018-Apr-04 11:00N 44°39' E 037°51'3 6.8
2018-Apr-04 10:30N 44°36' E 037°52'612.9
2018-Apr-04 10:00N 44°30' E 037°49'713.6
2018-Apr-04 09:29N 44°24' E 037°44'4 3.0
2018-Apr-04 08:10N 44°20' E 037°43'0 0.9
2018-Apr-04 08:00N 44°20' E 037°43'2015.5
2018-Apr-04 06:43N 44°35' E 038°01'0 0.0
2018-Apr-04 06:30N 44°35' E 038°01'2040.1
2018-Apr-04 06:00N 44°19' E 037°45'0 1.0
2018-Apr-04 05:30N 44°18' E 037°45'0 0.8
2018-Apr-04 05:00N 44°18' E 037°46'0 0.7
2018-Apr-04 04:30N 44°18' E 037°46'0 0.7
2018-Apr-04 04:00N 44°17' E 037°46'0 0.9
2018-Apr-04 03:30N 44°17' E 037°47'1 1.6
2018-Apr-04 03:00N 44°17' E 037°48'2 4.0
2018-Apr-04 02:30N 44°15' E 037°49'611.2
2018-Apr-04 01:59N 44°10' E 037°54'3 0.2
2018-Apr-03 11:37N 44°07' E 037°54'210.7
2018-Apr-03 11:27N 44°09' E 037°54'510.6
2018-Apr-03 11:00N 44°14' E 037°54'510.4
2018-Apr-03 10:30N 44°19' E 037°54'2 4.4
2018-Apr-03 10:00N 44°21' E 037°53'1 1.0
2018-Apr-03 09:30N 44°21' E 037°53'1 1.1
2018-Apr-03 09:00N 44°20' E 037°52'0 1.0
2018-Apr-03 08:30N 44°20' E 037°52'0 1.0
2018-Apr-03 08:00N 44°20' E 037°51'1 1.1
2018-Apr-03 07:30N 44°19' E 037°51'0 1.0
2018-Apr-03 07:00N 44°19' E 037°50'0 0.9
2018-Apr-03 06:30N 44°19' E 037°50'0 1.0
2018-Apr-03 06:00N 44°18' E 037°49'1 1.0
2018-Apr-03 05:30N 44°18' E 037°49'1 1.1
2018-Apr-03 05:00N 44°18' E 037°48'1 1.3
2018-Apr-03 04:30N 44°17' E 037°47'1 1.3
2018-Apr-03 04:00N 44°17' E 037°46'1 1.8
2018-Apr-03 03:30N 44°17' E 037°45'1 1.6
2018-Apr-03 03:00N 44°17' E 037°44'1 1.5
2018-Apr-03 02:30N 44°18' E 037°43'1 1.5
2018-Apr-03 02:00N 44°18' E 037°42'1 1.5
2018-Apr-03 01:30N 44°18' E 037°41'1 1.6
2018-Apr-03 01:00N 44°19' E 037°41'1 1.6
2018-Apr-03 00:30N 44°19' E 037°40'1 1.5
2018-Apr-03 00:00N 44°20' E 037°39'1 2.9
2018-Apr-02 23:30N 44°21' E 037°41'5 9.5
2018-Apr-02 23:00N 44°20' E 037°48'5 9.3
2018-Apr-02 22:30N 44°18' E 037°54'1 2.5
2018-Apr-02 22:00N 44°18' E 037°56'1 1.7
2018-Apr-02 21:30N 44°18' E 037°54'1 1.5
2018-Apr-02 21:00N 44°18' E 037°53'1 1.5
2018-Apr-02 20:30N 44°18' E 037°52'2 1.5
2018-Apr-02 18:53N 44°18' E 037°49'1 1.7
2018-Apr-02 18:30N 44°18' E 037°48'1 1.6
2018-Apr-02 18:00N 44°18' E 037°47'1 1.4
2018-Apr-02 17:30N 44°19' E 037°46'1 1.4
2018-Apr-02 17:00N 44°19' E 037°45'1 1.6
2018-Apr-02 16:30N 44°19' E 037°44'1 1.5
2018-Apr-02 16:00N 44°19' E 037°43'1 1.5
2018-Apr-02 15:30N 44°20' E 037°42'1 1.4
2018-Apr-02 15:00N 44°20' E 037°41'1 1.6
2018-Apr-02 14:30N 44°20' E 037°40'1 1.2
2018-Apr-02 14:00N 44°20' E 037°39'1 1.3
2018-Apr-02 13:30N 44°21' E 037°38'1 1.3
2018-Apr-02 13:00N 44°21' E 037°38'1 2.4
2018-Apr-02 12:30N 44°22' E 037°37'3 6.0
2018-Apr-02 12:00N 44°25' E 037°35'5 9.9
2018-Apr-02 11:30N 44°28' E 037°30'1 1.3
2018-Apr-02 11:00N 44°27' E 037°29'1 1.4
2018-Apr-02 10:30N 44°27' E 037°29'1 1.1
2018-Apr-02 10:00N 44°26' E 037°30'1 1.4
2018-Apr-02 09:19N 44°25' E 037°30'0 1.6
2018-Apr-02 09:00N 44°25' E 037°30'1 1.9
2018-Apr-02 08:30N 44°24' E 037°30'1 1.9
2018-Apr-02 08:00N 44°23' E 037°30'1 2.2
2018-Apr-02 07:30N 44°22' E 037°29'4 7.3
2018-Apr-02 07:00N 44°23' E 037°25'510.6
2018-Apr-02 06:30N 44°25' E 037°18'510.5
2018-Apr-02 05:59N 44°26' E 037°10'510.5
2018-Apr-02 05:30N 44°27' E 037°03'2 4.6
2018-Apr-02 05:00N 44°28' E 037°01'1 2.4
2018-Apr-02 04:30N 44°28' E 037°02'1 2.4
2018-Apr-02 04:00N 44°27' E 037°04'1 2.3
2018-Apr-02 03:30N 44°27' E 037°05'1 2.2
2018-Apr-02 03:00N 44°27' E 037°07'1 2.1
2018-Apr-02 02:30N 44°26' E 037°08'1 2.0
2018-Apr-02 02:00N 44°26' E 037°09'1 2.0
2018-Apr-02 01:30N 44°25' E 037°10'1 2.0
2018-Apr-02 01:00N 44°25' E 037°12'1 1.8
2018-Apr-02 00:30N 44°25' E 037°13'1 1.8
2018-Apr-02 00:00N 44°24' E 037°14'1 1.8
2018-Apr-01 23:30N 44°24' E 037°15'1 1.8
2018-Apr-01 23:00N 44°23' E 037°16'1 1.8
2018-Apr-01 22:30N 44°23' E 037°18'1 1.8
2018-Apr-01 22:00N 44°23' E 037°19'1 1.6
2018-Apr-01 21:30N 44°23' E 037°20'3 1.5
2018-Apr-01 19:47N 44°22' E 037°23'0 1.5
2018-Apr-01 19:30N 44°22' E 037°24'1 1.5
2018-Apr-01 19:00N 44°22' E 037°25'1 1.6
2018-Apr-01 18:30N 44°22' E 037°26'1 1.7
2018-Apr-01 18:00N 44°22' E 037°27'1 2.0
2018-Apr-01 17:30N 44°22' E 037°26'3 6.6
2018-Apr-01 17:00N 44°22' E 037°21'610.8
2018-Apr-01 16:30N 44°22' E 037°14'510.8
2018-Apr-01 16:00N 44°22' E 037°06'510.7
2018-Apr-01 15:30N 44°23' E 036°59'4 7.3
2018-Apr-01 15:00N 44°23' E 036°54'2 1.8
2018-Apr-01 14:06N 44°23' E 036°56'0 1.7
2018-Apr-01 13:55N 44°23' E 036°56'1 1.8
2018-Apr-01 13:30N 44°22' E 036°57'1 1.6
2018-Apr-01 12:59N 44°22' E 036°59'1 1.6
2018-Apr-01 12:07N 44°22' E 037°00'0 1.5
2018-Apr-01 12:00N 44°22' E 037°01'1 1.6
2018-Apr-01 11:30N 44°21' E 037°02'1 1.7
2018-Apr-01 11:00N 44°21' E 037°03'1 1.8
2018-Apr-01 10:30N 44°20' E 037°04'1 1.8
2018-Apr-01 09:59N 44°20' E 037°05'1 1.8
2018-Apr-01 09:29N 44°20' E 037°06'1 1.8
2018-Apr-01 09:00N 44°19' E 037°07'1 1.7
2018-Apr-01 08:28N 44°19' E 037°08'1 1.7
2018-Apr-01 08:00N 44°18' E 037°09'1 1.6
2018-Apr-01 07:30N 44°18' E 037°10'1 1.6
2018-Apr-01 06:39N 44°17' E 037°12'0 1.6
2018-Apr-01 06:30N 44°17' E 037°12'1 1.6
2018-Apr-01 05:59N 44°17' E 037°13'1 1.5
2018-Apr-01 05:28N 44°17' E 037°14'1 1.5
2018-Apr-01 05:00N 44°17' E 037°15'1 1.5
2018-Apr-01 04:30N 44°17' E 037°16'1 1.5
2018-Apr-01 04:00N 44°17' E 037°17'1 1.5
2018-Apr-01 03:30N 44°17' E 037°19'1 1.5
2018-Apr-01 03:00N 44°17' E 037°20'1 1.5
2018-Apr-01 02:29N 44°17' E 037°21'1 1.4
2018-Apr-01 02:00N 44°17' E 037°22'1 1.3
2018-Apr-01 01:30N 44°17' E 037°23'1 1.2
2018-Apr-01 01:00N 44°17' E 037°23'1 1.2
2018-Apr-01 00:30N 44°17' E 037°24'1 1.3
2018-Mar-31 23:59N 44°17' E 037°25'1 1.3
2018-Mar-31 23:30N 44°17' E 037°26'1 1.4
2018-Mar-31 23:00N 44°16' E 037°27'1 1.5
2018-Mar-31 22:30N 44°16' E 037°28'1 1.6
2018-Mar-31 22:00N 44°16' E 037°29'1 1.8
2018-Mar-31 21:29N 44°16' E 037°30'1 2.2
2018-Mar-31 21:00N 44°17' E 037°31'5 9.8
2018-Mar-31 20:30N 44°22' E 037°32'510.5
2018-Mar-31 20:00N 44°27' E 037°32'2 1.3
2018-Mar-31 18:25N 44°25' E 037°33'1 1.5
2018-Mar-31 18:00N 44°24' E 037°33'1 1.5
2018-Mar-31 17:30N 44°23' E 037°33'1 1.5
2018-Mar-31 17:00N 44°23' E 037°34'1 1.5
2018-Mar-31 16:30N 44°22' E 037°34'1 1.4
2018-Mar-31 16:00N 44°21' E 037°34'1 1.5
2018-Mar-31 15:30N 44°21' E 037°34'1 1.4
2018-Mar-31 15:00N 44°20' E 037°35'1 1.3
2018-Mar-31 14:11N 44°19' E 037°35'0 1.1
2018-Mar-31 14:00N 44°19' E 037°35'1 0.9
2018-Mar-31 12:39N 44°17' E 037°35'0 0.8
2018-Mar-31 12:30N 44°17' E 037°35'0 0.8
2018-Mar-31 12:00N 44°17' E 037°34'0 0.8
2018-Mar-31 11:30N 44°16' E 037°34'0 0.9
2018-Mar-31 11:00N 44°16' E 037°34'0 0.9
2018-Mar-31 10:30N 44°16' E 037°34'0 0.8
2018-Mar-31 10:00N 44°15' E 037°34'0 0.6
2018-Mar-31 09:28N 44°15' E 037°33'0 0.5
2018-Mar-31 09:00N 44°15' E 037°33'0 0.4
2018-Mar-31 08:29N 44°15' E 037°33'0 0.4
2018-Mar-31 07:57N 44°15' E 037°33'0 0.4
2018-Mar-31 07:27N 44°14' E 037°32'0 0.5
2018-Mar-31 07:00N 44°14' E 037°32'0 0.5
2018-Mar-31 06:29N 44°14' E 037°32'3029.9
2018-Mar-31 05:30N 44°36' E 038°01'3142.5
2018-Mar-31 04:46N 44°13' E 037°31'0 0.4
2018-Mar-31 04:30N 44°13' E 037°31'0 0.4
2018-Mar-31 04:00N 44°13' E 037°31'0 0.3
2018-Mar-31 03:30N 44°13' E 037°30'0 0.2
2018-Mar-31 02:56N 44°13' E 037°30'0 0.2
2018-Mar-31 02:30N 44°13' E 037°30'0 0.2
2018-Mar-31 01:58N 44°13' E 037°30'0 0.3
2018-Mar-31 01:30N 44°13' E 037°30'0 0.3
2018-Mar-31 01:00N 44°13' E 037°30'0 0.0
2018-Mar-31 00:23N 44°13' E 037°30'0 0.2
2018-Mar-31 00:00N 44°13' E 037°30'0 0.2
2018-Mar-30 23:21N 44°14' E 037°30'0 0.3
2018-Mar-30 22:55N 44°14' E 037°30'0 0.3
2018-Mar-30 22:23N 44°14' E 037°30'0 0.4
2018-Mar-30 21:58N 44°14' E 037°30'0 0.4
2018-Mar-30 21:24N 44°14' E 037°30'0 0.5
2018-Mar-30 20:54N 44°14' E 037°30'0 0.5
2018-Mar-30 20:30N 44°15' E 037°30'0 0.6
2018-Mar-30 20:00N 44°15' E 037°30'1 0.7
2018-Mar-30 19:05N 44°16' E 037°30'0 0.6
2018-Mar-30 19:00N 44°16' E 037°30'0 0.6
2018-Mar-30 18:29N 44°16' E 037°31'0 0.6
2018-Mar-30 18:00N 44°16' E 037°31'0 0.7
2018-Mar-30 17:24N 44°17' E 037°30'1 0.8
2018-Mar-30 16:44N 44°17' E 037°30'0 0.8
2018-Mar-30 16:25N 44°17' E 037°30'0 0.7
2018-Mar-30 16:00N 44°18' E 037°30'0 0.7
2018-Mar-30 15:30N 44°18' E 037°30'0 0.7
2018-Mar-30 15:00N 44°18' E 037°31'0 0.7
2018-Mar-30 14:28N 44°19' E 037°31'1 0.8
2018-Mar-30 12:38N 44°20' E 037°31'0 0.8
2018-Mar-30 12:29N 44°20' E 037°31'1 0.8
2018-Mar-30 10:51N 44°22' E 037°31'0 0.9
2018-Mar-30 10:30N 44°21' E 037°31'3 6.5
2018-Mar-30 10:00N 44°20' E 037°27'611.1
2018-Mar-30 09:28N 44°17' E 037°20'10 0.5
2018-Mar-29 15:22N 44°22' E 037°09'1 1.8
2018-Mar-29 14:58N 44°23' E 037°10'1 1.7
2018-Mar-29 14:29N 44°23' E 037°11'2 1.5
2018-Mar-29 13:03N 44°23' E 037°14'1 1.6
2018-Mar-29 12:08N 44°23' E 037°16'2 1.5
2018-Mar-29 10:30N 44°23' E 037°19'1 1.9
2018-Mar-29 10:00N 44°23' E 037°21'2 2.0
2018-Mar-29 09:14N 44°23' E 037°23'1 2.1
2018-Mar-29 08:53N 44°22' E 037°24'1 1.9
2018-Mar-29 08:13N 44°22' E 037°25'0 1.9
2018-Mar-29 08:01N 44°22' E 037°26'1 2.0
2018-Mar-29 07:30N 44°22' E 037°27'1 2.3
2018-Mar-29 07:00N 44°22' E 037°29'1 2.4
2018-Mar-29 06:30N 44°22' E 037°31'1 2.3
2018-Mar-29 06:00N 44°22' E 037°32'1 2.2
2018-Mar-29 05:30N 44°21' E 037°34'1 2.3
2018-Mar-29 05:00N 44°21' E 037°35'2 4.6
2018-Mar-29 04:30N 44°19' E 037°36'1 1.2
2018-Mar-29 03:53N 44°19' E 037°35'1 1.5
2018-Mar-29 03:30N 44°20' E 037°36'1 1.5
2018-Mar-29 03:00N 44°21' E 037°36'1 1.4
2018-Mar-29 02:30N 44°21' E 037°36'1 1.4
2018-Mar-29 02:01N 44°22' E 037°36'1 1.1
2018-Mar-29 01:30N 44°23' E 037°36'0 1.0
2018-Mar-29 01:00N 44°23' E 037°36'0 0.9
2018-Mar-29 00:30N 44°24' E 037°36'0 1.0
2018-Mar-29 00:00N 44°24' E 037°36'1 1.1
2018-Mar-28 23:30N 44°25' E 037°36'1 1.2
2018-Mar-28 23:00N 44°25' E 037°36'1 1.4
2018-Mar-28 22:30N 44°25' E 037°35'2 5.0
2018-Mar-28 22:00N 44°25' E 037°32'4 7.2
2018-Mar-28 21:30N 44°23' E 037°27'611.4
2018-Mar-28 20:59N 44°21' E 037°20'611.6
2018-Mar-28 20:28N 44°18' E 037°12'  
Track history (hours):
 
Tides and Currents Weather Stations Pressure Air Temp Water Temp Dewpoint Dewpoint Depression Visibility Wind Speed Wind Dir Waves Ship Positions

Ce Niriis

Last reported at 2018-Apr-06 22:16 UTC. Time now 2018-Apr-20 16:19 UTC.
Position N 42°31' E 028°16'.
Warning: this ship's position is 13 days out of date.

Length 243 m; draft 12 m.

Type: Tanker. MMSI: 636012570.

Date/timePositionNaut miles runAvg speedWind from/ knotsBaromVisibWave heightAir tempDewpointWater temp
2018-Apr-06 22:16N 42°31' E 028°16'6 9.6
2018-Apr-06 21:41N 42°33' E 028°23'2 9.5
2018-Apr-06 21:30N 42°33' E 028°25'1212.0
2018-Apr-06 20:33N 42°36' E 028°41'112.7
2018-Apr-06 20:28N 42°37' E 028°42'1612.8
2018-Apr-06 19:14N 42°41' E 029°03'312.6
2018-Apr-06 19:00N 42°41' E 029°06'612.5
2018-Apr-06 18:30N 42°43' E 029°15'612.6
2018-Apr-06 18:00N 42°45' E 029°23'612.6
2018-Apr-06 17:30N 42°46' E 029°31'812.5
2018-Apr-06 16:53N 42°48' E 029°41'512.6
2018-Apr-06 16:30N 42°49' E 029°48'612.5
2018-Apr-06 16:00N 42°51' E 029°56'712.5
2018-Apr-06 15:27N 42°53' E 030°05'16912.4
2018-Apr-06 01:48N 43°36' E 033°50'413.2
2018-Apr-06 01:30N 43°37' E 033°55'713.2
2018-Apr-06 01:00N 43°39' E 034°04'613.1
2018-Apr-06 00:30N 43°41' E 034°13'713.1
2018-Apr-06 00:00N 43°42' E 034°21'713.2
2018-Apr-05 23:30N 43°44' E 034°30'713.2
2018-Apr-05 23:00N 43°45' E 034°39'713.3
2018-Apr-05 22:30N 43°47' E 034°48'713.6
2018-Apr-05 22:00N 43°49' E 034°57'713.7
2018-Apr-05 21:30N 43°51' E 035°06'713.6
2018-Apr-05 21:00N 43°52' E 035°15'713.5
2018-Apr-05 20:30N 43°54' E 035°24'713.8
2018-Apr-05 20:00N 43°56' E 035°33'713.7
2018-Apr-05 19:30N 43°59' E 035°42'713.5
2018-Apr-05 19:00N 44°01' E 035°51'713.3
2018-Apr-05 18:30N 44°01' E 036°01'713.4
2018-Apr-05 18:00N 44°03' E 036°10'713.2
2018-Apr-05 17:30N 44°04' E 036°18'713.1
2018-Apr-05 17:00N 44°05' E 036°28'712.6
2018-Apr-05 16:29N 44°08' E 036°36'713.1
2018-Apr-05 15:57N 44°11' E 036°45'613.0
2018-Apr-05 15:30N 44°14' E 036°52'1013.1
2018-Apr-05 14:44N 44°19' E 037°04'413.2
2018-Apr-05 14:28N 44°20' E 037°09'613.3
2018-Apr-05 13:59N 44°23' E 037°17'1513.3
2018-Apr-05 12:50N 44°30' E 037°35'412.8
2018-Apr-05 12:30N 44°32' E 037°41'611.5
2018-Apr-05 12:00N 44°36' E 037°47'5 9.2
2018-Apr-05 11:30N 44°39' E 037°51'3 5.7
2018-Apr-05 11:00N 44°42' E 037°50'0 0.1
2018-Apr-05 10:29N 44°42' E 037°50'0 0.0
2018-Apr-05 09:59N 44°42' E 037°50'0 0.0
2018-Apr-05 09:29N 44°42' E 037°50'0 0.0
2018-Apr-05 08:59N 44°42' E 037°50'0 0.0
2018-Apr-05 08:29N 44°42' E 037°50'0 0.0
2018-Apr-05 07:59N 44°42' E 037°50'0 0.0
2018-Apr-05 07:29N 44°42' E 037°50'0 0.0
2018-Apr-05 06:59N 44°42' E 037°50'0 0.0
2018-Apr-05 06:29N 44°42' E 037°50'0 0.0
2018-Apr-05 05:59N 44°42' E 037°50'0 0.0
2018-Apr-05 05:29N 44°42' E 037°50'0 0.0
2018-Apr-05 04:59N 44°42' E 037°50'0 0.0
2018-Apr-05 04:29N 44°42' E 037°50'0 0.0
2018-Apr-05 03:59N 44°42' E 037°50'0 0.0
2018-Apr-05 03:23N 44°42' E 037°50'0 0.0
2018-Apr-05 02:59N 44°42' E 037°50'0 0.0
2018-Apr-05 02:29N 44°42' E 037°50'0 0.0
2018-Apr-05 01:59N 44°42' E 037°50'0 0.0
2018-Apr-05 01:29N 44°42' E 037°50'0 0.0
2018-Apr-05 00:59N 44°42' E 037°50'0 0.0
2018-Apr-05 00:29N 44°42' E 037°50'0 0.0
2018-Apr-04 23:59N 44°42' E 037°50'0 0.0
2018-Apr-04 23:29N 44°42' E 037°50'0 0.0
2018-Apr-04 22:59N 44°42' E 037°50'0 0.0
2018-Apr-04 22:29N 44°42' E 037°50'0 0.0
2018-Apr-04 21:58N 44°42' E 037°50'0 0.0
2018-Apr-04 21:28N 44°42' E 037°50'0 0.0
2018-Apr-04 20:58N 44°42' E 037°50'0 0.0
2018-Apr-04 20:28N 44°42' E 037°50'0 0.0
2018-Apr-04 19:58N 44°42' E 037°50'0 0.0
2018-Apr-04 19:28N 44°42' E 037°50'0 0.0
2018-Apr-04 18:58N 44°42' E 037°50'0 0.0
2018-Apr-04 18:28N 44°42' E 037°50'0 0.0
2018-Apr-04 17:58N 44°42' E 037°50'0 0.0
2018-Apr-04 17:28N 44°42' E 037°50'0 0.0
2018-Apr-04 16:58N 44°42' E 037°50'0 0.0
2018-Apr-04 16:28N 44°42' E 037°50'0 0.0
2018-Apr-04 15:58N 44°42' E 037°50'0 0.0
2018-Apr-04 15:28N 44°42' E 037°50'0 0.0
2018-Apr-04 14:58N 44°42' E 037°50'0 0.0
2018-Apr-04 14:28N 44°42' E 037°50'0 0.0
2018-Apr-04 13:58N 44°42' E 037°50'0 0.0
2018-Apr-04 13:28N 44°42' E 037°50'0 0.0
2018-Apr-04 12:58N 44°42' E 037°50'0 0.0
2018-Apr-04 12:28N 44°42' E 037°50'0 0.0
2018-Apr-04 12:00N 44°42' E 037°50'0 0.6
2018-Apr-04 11:30N 44°42' E 037°50'3 5.0
2018-Apr-04 11:00N 44°39' E 037°51'3 6.8
2018-Apr-04 10:30N 44°36' E 037°52'612.9
2018-Apr-04 10:00N 44°30' E 037°49'713.6
2018-Apr-04 09:29N 44°24' E 037°44'4 3.0
2018-Apr-04 08:10N 44°20' E 037°43'0 0.9
2018-Apr-04 08:00N 44°20' E 037°43'2015.5
2018-Apr-04 06:43N 44°35' E 038°01'0 0.0
2018-Apr-04 06:30N 44°35' E 038°01'2040.1
2018-Apr-04 06:00N 44°19' E 037°45'0 1.0
2018-Apr-04 05:30N 44°18' E 037°45'0 0.8
2018-Apr-04 05:00N 44°18' E 037°46'0 0.7
2018-Apr-04 04:30N 44°18' E 037°46'0 0.7
2018-Apr-04 04:00N 44°17' E 037°46'0 0.9
2018-Apr-04 03:30N 44°17' E 037°47'1 1.6
2018-Apr-04 03:00N 44°17' E 037°48'2 4.0
2018-Apr-04 02:30N 44°15' E 037°49'611.2
2018-Apr-04 01:59N 44°10' E 037°54'3 0.2
2018-Apr-03 11:37N 44°07' E 037°54'210.7
2018-Apr-03 11:27N 44°09' E 037°54'510.6
2018-Apr-03 11:00N 44°14' E 037°54'510.4
2018-Apr-03 10:30N 44°19' E 037°54'2 4.4
2018-Apr-03 10:00N 44°21' E 037°53'1 1.0
2018-Apr-03 09:30N 44°21' E 037°53'1 1.1
2018-Apr-03 09:00N 44°20' E 037°52'0 1.0
2018-Apr-03 08:30N 44°20' E 037°52'0 1.0
2018-Apr-03 08:00N 44°20' E 037°51'1 1.1
2018-Apr-03 07:30N 44°19' E 037°51'0 1.0
2018-Apr-03 07:00N 44°19' E 037°50'0 0.9
2018-Apr-03 06:30N 44°19' E 037°50'0 1.0
2018-Apr-03 06:00N 44°18' E 037°49'1 1.0
2018-Apr-03 05:30N 44°18' E 037°49'1 1.1
2018-Apr-03 05:00N 44°18' E 037°48'1 1.3
2018-Apr-03 04:30N 44°17' E 037°47'1 1.3
2018-Apr-03 04:00N 44°17' E 037°46'1 1.8
2018-Apr-03 03:30N 44°17' E 037°45'1 1.6
2018-Apr-03 03:00N 44°17' E 037°44'1 1.5
2018-Apr-03 02:30N 44°18' E 037°43'1 1.5
2018-Apr-03 02:00N 44°18' E 037°42'1 1.5
2018-Apr-03 01:30N 44°18' E 037°41'1 1.6
2018-Apr-03 01:00N 44°19' E 037°41'1 1.6
2018-Apr-03 00:30N 44°19' E 037°40'1 1.5
2018-Apr-03 00:00N 44°20' E 037°39'1 2.9
2018-Apr-02 23:30N 44°21' E 037°41'5 9.5
2018-Apr-02 23:00N 44°20' E 037°48'5 9.3
2018-Apr-02 22:30N 44°18' E 037°54'1 2.5
2018-Apr-02 22:00N 44°18' E 037°56'1 1.7
2018-Apr-02 21:30N 44°18' E 037°54'1 1.5
2018-Apr-02 21:00N 44°18' E 037°53'1 1.5
2018-Apr-02 20:30N 44°18' E 037°52'2 1.5
2018-Apr-02 18:53N 44°18' E 037°49'1 1.7
2018-Apr-02 18:30N 44°18' E 037°48'1 1.6
2018-Apr-02 18:00N 44°18' E 037°47'1 1.4
2018-Apr-02 17:30N 44°19' E 037°46'1 1.4
2018-Apr-02 17:00N 44°19' E 037°45'1 1.6
2018-Apr-02 16:30N 44°19' E 037°44'1 1.5
2018-Apr-02 16:00N 44°19' E 037°43'1 1.5
2018-Apr-02 15:30N 44°20' E 037°42'1 1.4
2018-Apr-02 15:00N 44°20' E 037°41'1 1.6
2018-Apr-02 14:30N 44°20' E 037°40'1 1.2
2018-Apr-02 14:00N 44°20' E 037°39'1 1.3
2018-Apr-02 13:30N 44°21' E 037°38'1 1.3
2018-Apr-02 13:00N 44°21' E 037°38'1 2.4
2018-Apr-02 12:30N 44°22' E 037°37'3 6.0
2018-Apr-02 12:00N 44°25' E 037°35'5 9.9
2018-Apr-02 11:30N 44°28' E 037°30'1 1.3
2018-Apr-02 11:00N 44°27' E 037°29'1 1.4
2018-Apr-02 10:30N 44°27' E 037°29'1 1.1
2018-Apr-02 10:00N 44°26' E 037°30'1 1.4
2018-Apr-02 09:19N 44°25' E 037°30'0 1.6
2018-Apr-02 09:00N 44°25' E 037°30'1 1.9
2018-Apr-02 08:30N 44°24' E 037°30'1 1.9
2018-Apr-02 08:00N 44°23' E 037°30'1 2.2
2018-Apr-02 07:30N 44°22' E 037°29'4 7.3
2018-Apr-02 07:00N 44°23' E 037°25'510.6
2018-Apr-02 06:30N 44°25' E 037°18'510.5
2018-Apr-02 05:59N 44°26' E 037°10'510.5
2018-Apr-02 05:30N 44°27' E 037°03'2 4.6
2018-Apr-02 05:00N 44°28' E 037°01'1 2.4
2018-Apr-02 04:30N 44°28' E 037°02'1 2.4
2018-Apr-02 04:00N 44°27' E 037°04'1 2.3
2018-Apr-02 03:30N 44°27' E 037°05'1 2.2
2018-Apr-02 03:00N 44°27' E 037°07'1 2.1
2018-Apr-02 02:30N 44°26' E 037°08'1 2.0
2018-Apr-02 02:00N 44°26' E 037°09'1 2.0
2018-Apr-02 01:30N 44°25' E 037°10'1 2.0
2018-Apr-02 01:00N 44°25' E 037°12'1 1.8
2018-Apr-02 00:30N 44°25' E 037°13'1 1.8
2018-Apr-02 00:00N 44°24' E 037°14'1 1.8
2018-Apr-01 23:30N 44°24' E 037°15'1 1.8
2018-Apr-01 23:00N 44°23' E 037°16'1 1.8
2018-Apr-01 22:30N 44°23' E 037°18'1 1.8
2018-Apr-01 22:00N 44°23' E 037°19'1 1.6
2018-Apr-01 21:30N 44°23' E 037°20'3 1.5
2018-Apr-01 19:47N 44°22' E 037°23'0 1.5
2018-Apr-01 19:30N 44°22' E 037°24'1 1.5
2018-Apr-01 19:00N 44°22' E 037°25'1 1.6
2018-Apr-01 18:30N 44°22' E 037°26'1 1.7
2018-Apr-01 18:00N 44°22' E 037°27'1 2.0
2018-Apr-01 17:30N 44°22' E 037°26'3 6.6
2018-Apr-01 17:00N 44°22' E 037°21'610.8
2018-Apr-01 16:30N 44°22' E 037°14'510.8
2018-Apr-01 16:00N 44°22' E 037°06'510.7
2018-Apr-01 15:30N 44°23' E 036°59'4 7.3
2018-Apr-01 15:00N 44°23' E 036°54'2 1.8
2018-Apr-01 14:06N 44°23' E 036°56'0 1.7
2018-Apr-01 13:55N 44°23' E 036°56'1 1.8
2018-Apr-01 13:30N 44°22' E 036°57'1 1.6
2018-Apr-01 12:59N 44°22' E 036°59'1 1.6
2018-Apr-01 12:07N 44°22' E 037°00'0 1.5
2018-Apr-01 12:00N 44°22' E 037°01'1 1.6
2018-Apr-01 11:30N 44°21' E 037°02'1 1.7
2018-Apr-01 11:00N 44°21' E 037°03'1 1.8
2018-Apr-01 10:30N 44°20' E 037°04'1 1.8
2018-Apr-01 09:59N 44°20' E 037°05'1 1.8
2018-Apr-01 09:29N 44°20' E 037°06'1 1.8
2018-Apr-01 09:00N 44°19' E 037°07'1 1.7
2018-Apr-01 08:28N 44°19' E 037°08'1 1.7
2018-Apr-01 08:00N 44°18' E 037°09'1 1.6
2018-Apr-01 07:30N 44°18' E 037°10'1 1.6
2018-Apr-01 06:39N 44°17' E 037°12'0 1.6
2018-Apr-01 06:30N 44°17' E 037°12'1 1.6
2018-Apr-01 05:59N 44°17' E 037°13'1 1.5
2018-Apr-01 05:28N 44°17' E 037°14'1 1.5
2018-Apr-01 05:00N 44°17' E 037°15'1 1.5
2018-Apr-01 04:30N 44°17' E 037°16'1 1.5
2018-Apr-01 04:00N 44°17' E 037°17'1 1.5
2018-Apr-01 03:30N 44°17' E 037°19'1 1.5
2018-Apr-01 03:00N 44°17' E 037°20'1 1.5
2018-Apr-01 02:29N 44°17' E 037°21'1 1.4
2018-Apr-01 02:00N 44°17' E 037°22'1 1.3
2018-Apr-01 01:30N 44°17' E 037°23'1 1.2
2018-Apr-01 01:00N 44°17' E 037°23'1 1.2
2018-Apr-01 00:30N 44°17' E 037°24'1 1.3
2018-Mar-31 23:59N 44°17' E 037°25'1 1.3
2018-Mar-31 23:30N 44°17' E 037°26'1 1.4
2018-Mar-31 23:00N 44°16' E 037°27'1 1.5
2018-Mar-31 22:30N 44°16' E 037°28'1 1.6
2018-Mar-31 22:00N 44°16' E 037°29'1 1.8
2018-Mar-31 21:29N 44°16' E 037°30'1 2.2
2018-Mar-31 21:00N 44°17' E 037°31'5 9.8
2018-Mar-31 20:30N 44°22' E 037°32'510.5
2018-Mar-31 20:00N 44°27' E 037°32'2 1.3
2018-Mar-31 18:25N 44°25' E 037°33'1 1.5
2018-Mar-31 18:00N 44°24' E 037°33'1 1.5
2018-Mar-31 17:30N 44°23' E 037°33'1 1.5
2018-Mar-31 17:00N 44°23' E 037°34'1 1.5
2018-Mar-31 16:30N 44°22' E 037°34'1 1.4
2018-Mar-31 16:00N 44°21' E 037°34'1 1.5
2018-Mar-31 15:30N 44°21' E 037°34'1 1.4
2018-Mar-31 15:00N 44°20' E 037°35'1 1.3
2018-Mar-31 14:11N 44°19' E 037°35'0 1.1
2018-Mar-31 14:00N 44°19' E 037°35'1 0.9
2018-Mar-31 12:39N 44°17' E 037°35'0 0.8
2018-Mar-31 12:30N 44°17' E 037°35'0 0.8
2018-Mar-31 12:00N 44°17' E 037°34'0 0.8
2018-Mar-31 11:30N 44°16' E 037°34'0 0.9
2018-Mar-31 11:00N 44°16' E 037°34'0 0.9
2018-Mar-31 10:30N 44°16' E 037°34'0 0.8
2018-Mar-31 10:00N 44°15' E 037°34'0 0.6
2018-Mar-31 09:28N 44°15' E 037°33'0 0.5
2018-Mar-31 09:00N 44°15' E 037°33'0 0.4
2018-Mar-31 08:29N 44°15' E 037°33'0 0.4
2018-Mar-31 07:57N 44°15' E 037°33'0 0.4
2018-Mar-31 07:27N 44°14' E 037°32'0 0.5
2018-Mar-31 07:00N 44°14' E 037°32'0 0.5
2018-Mar-31 06:29N 44°14' E 037°32'3029.9
2018-Mar-31 05:30N 44°36' E 038°01'3142.5
2018-Mar-31 04:46N 44°13' E 037°31'0 0.4
2018-Mar-31 04:30N 44°13' E 037°31'0 0.4
2018-Mar-31 04:00N 44°13' E 037°31'0 0.3
2018-Mar-31 03:30N 44°13' E 037°30'0 0.2
2018-Mar-31 02:56N 44°13' E 037°30'0 0.2
2018-Mar-31 02:30N 44°13' E 037°30'0 0.2
2018-Mar-31 01:58N 44°13' E 037°30'0 0.3
2018-Mar-31 01:30N 44°13' E 037°30'0 0.3
2018-Mar-31 01:00N 44°13' E 037°30'0 0.0
2018-Mar-31 00:23N 44°13' E 037°30'0 0.2
2018-Mar-31 00:00N 44°13' E 037°30'0 0.2
2018-Mar-30 23:21N 44°14' E 037°30'0 0.3
2018-Mar-30 22:55N 44°14' E 037°30'0 0.3
2018-Mar-30 22:23N 44°14' E 037°30'0 0.4
2018-Mar-30 21:58N 44°14' E 037°30'0 0.4
2018-Mar-30 21:24N 44°14' E 037°30'0 0.5
2018-Mar-30 20:54N 44°14' E 037°30'0 0.5
2018-Mar-30 20:30N 44°15' E 037°30'0 0.6
2018-Mar-30 20:00N 44°15' E 037°30'1 0.7
2018-Mar-30 19:05N 44°16' E 037°30'0 0.6
2018-Mar-30 19:00N 44°16' E 037°30'0 0.6
2018-Mar-30 18:29N 44°16' E 037°31'0 0.6
2018-Mar-30 18:00N 44°16' E 037°31'0 0.7
2018-Mar-30 17:24N 44°17' E 037°30'1 0.8
2018-Mar-30 16:44N 44°17' E 037°30'0 0.8
2018-Mar-30 16:25N 44°17' E 037°30'0 0.7
2018-Mar-30 16:00N 44°18' E 037°30'0 0.7
2018-Mar-30 15:30N 44°18' E 037°30'0 0.7
2018-Mar-30 15:00N 44°18' E 037°31'0 0.7
2018-Mar-30 14:28N 44°19' E 037°31'1 0.8
2018-Mar-30 12:38N 44°20' E 037°31'0 0.8
2018-Mar-30 12:29N 44°20' E 037°31'1 0.8
2018-Mar-30 10:51N 44°22' E 037°31'0 0.9
2018-Mar-30 10:30N 44°21' E 037°31'3 6.5
2018-Mar-30 10:00N 44°20' E 037°27'611.1
2018-Mar-30 09:28N 44°17' E 037°20'10 0.5
2018-Mar-29 15:22N 44°22' E 037°09'1 1.8
2018-Mar-29 14:58N 44°23' E 037°10'1 1.7
2018-Mar-29 14:29N 44°23' E 037°11'2 1.5
2018-Mar-29 13:03N 44°23' E 037°14'1 1.6
2018-Mar-29 12:08N 44°23' E 037°16'2 1.5
2018-Mar-29 10:30N 44°23' E 037°19'1 1.9
2018-Mar-29 10:00N 44°23' E 037°21'2 2.0
2018-Mar-29 09:14N 44°23' E 037°23'1 2.1
2018-Mar-29 08:53N 44°22' E 037°24'1 1.9
2018-Mar-29 08:13N 44°22' E 037°25'0 1.9
2018-Mar-29 08:01N 44°22' E 037°26'1 2.0
2018-Mar-29 07:30N 44°22' E 037°27'1 2.3
2018-Mar-29 07:00N 44°22' E 037°29'1 2.4
2018-Mar-29 06:30N 44°22' E 037°31'1 2.3
2018-Mar-29 06:00N 44°22' E 037°32'1 2.2
2018-Mar-29 05:30N 44°21' E 037°34'1 2.3
2018-Mar-29 05:00N 44°21' E 037°35'2 4.6
2018-Mar-29 04:30N 44°19' E 037°36'1 1.2
2018-Mar-29 03:53N 44°19' E 037°35'1 1.5
2018-Mar-29 03:30N 44°20' E 037°36'1 1.5
2018-Mar-29 03:00N 44°21' E 037°36'1 1.4
2018-Mar-29 02:30N 44°21' E 037°36'1 1.4
2018-Mar-29 02:01N 44°22' E 037°36'1 1.1
2018-Mar-29 01:30N 44°23' E 037°36'0 1.0
2018-Mar-29 01:00N 44°23' E 037°36'0 0.9
2018-Mar-29 00:30N 44°24' E 037°36'0 1.0
2018-Mar-29 00:00N 44°24' E 037°36'1 1.1
2018-Mar-28 23:30N 44°25' E 037°36'1 1.2
2018-Mar-28 23:00N 44°25' E 037°36'1 1.4
2018-Mar-28 22:30N 44°25' E 037°35'2 5.0
2018-Mar-28 22:00N 44°25' E 037°32'4 7.2
2018-Mar-28 21:30N 44°23' E 037°27'611.4
2018-Mar-28 20:59N 44°21' E 037°20'611.6
2018-Mar-28 20:28N 44°18' E 037°12'  

Dump ship's entire track history